Time;durP1;ratioP1;P1;durP2;ratioP2;P2;SDS_P1;SDS_P2;PMS_P1;PMS_P2;Temp;Humidity;BMP_temperature;BMP_pressure;BME280_temperature;BME280_humidity;BME280_pressure;Samples;Min_cycle;Max_cycle;Signal;HPM_P1;HPM_P2
2022/12/19 00:01:46;;;;;;;16.85;7.82;;;;;;;;;;4981334;28;20110;-82
2022/12/19 00:04:14;;;;;;;15.50;7.47;;;;;;;;;;4981679;28;20077;-83
2022/12/19 00:06:40;;;;;;;17.58;7.10;;;;;;;;;;4980239;28;20033;-82
2022/12/19 00:09:05;;;;;;;16.25;7.50;;;;;;;;;;4981825;28;20086;-81
2022/12/19 00:11:32;;;;;;;10.77;5.03;;;;;;;;;;4981160;28;20031;-82
2022/12/19 00:13:58;;;;;;;11.55;5.40;;;;;;;;;;4981618;28;20495;-81
2022/12/19 00:16:25;;;;;;;17.58;6.97;;;;;;;;;;4981354;28;20031;-81
2022/12/19 00:18:52;;;;;;;19.33;7.30;;;;;;;;;;4981103;28;20512;-80
2022/12/19 00:21:20;;;;;;;10.07;5.45;;;;;;;;;;4981095;28;20031;-81
2022/12/19 00:23:46;;;;;;;14.57;6.85;;;;;;;;;;4979497;28;20034;-80
2022/12/19 00:26:17;;;;;;;25.10;9.18;;;;;;;;;;4981064;28;20024;-82
2022/12/19 00:28:45;;;;;;;14.85;7.05;;;;;;;;;;4981239;28;20142;-82
2022/12/19 00:31:11;;;;;;;20.65;6.53;;;;;;;;;;4981154;28;20043;-83
2022/12/19 00:33:37;;;;;;;17.33;8.48;;;;;;;;;;4979982;28;20388;-82
2022/12/19 00:36:05;;;;;;;15.80;7.38;;;;;;;;;;4980804;28;20023;-81
2022/12/19 00:38:31;;;;;;;16.23;6.65;;;;;;;;;;4980780;28;20027;-83
2022/12/19 00:41:17;;;;;;;7.78;4.05;;;;;;;;;;4980953;28;20054;-82
2022/12/19 00:43:43;;;;;;;11.07;4.72;;;;;;;;;;4979498;28;20058;-81
2022/12/19 00:46:11;;;;;;;15.27;6.40;;;;;;;;;;4981617;28;20472;-82
2022/12/19 00:48:36;;;;;;;16.20;5.35;;;;;;;;;;4979231;28;20031;-82
2022/12/19 00:51:11;;;;;;;13.23;4.95;;;;;;;;;;4980583;28;20400;-82
2022/12/19 00:53:36;;;;;;;10.13;4.47;;;;;;;;;;4980552;28;20038;-81
2022/12/19 00:56:03;;;;;;;15.63;7.20;;;;;;;;;;4979156;28;20022;-82
2022/12/19 00:58:29;;;;;;;14.43;6.63;;;;;;;;;;4978624;28;20027;-83
2022/12/19 01:00:54;;;;;;;15.80;7.43;;;;;;;;;;4980152;28;20030;-83
2022/12/19 01:03:19;;;;;;;15.80;7.07;;;;;;;;;;4979870;28;20027;-81
2022/12/19 01:05:44;;;;;;;14.80;7.10;;;;;;;;;;4980495;28;20019;-83
2022/12/19 01:08:10;;;;;;;15.80;6.75;;;;;;;;;;4980129;28;20084;-81
2022/12/19 01:10:35;;;;;;;16.92;7.47;;;;;;;;;;4978556;28;20031;-81
2022/12/19 01:13:00;;;;;;;13.00;6.25;;;;;;;;;;4980244;28;20480;-82
2022/12/19 01:15:25;;;;;;;15.82;7.10;;;;;;;;;;4981795;28;20050;-83
2022/12/19 01:17:51;;;;;;;12.85;5.82;;;;;;;;;;4978722;28;20037;-82
2022/12/19 01:20:18;;;;;;;10.10;4.88;;;;;;;;;;4979809;28;20109;-81
2022/12/19 01:22:44;;;;;;;15.85;5.95;;;;;;;;;;4978675;28;20106;-82
2022/12/19 01:25:10;;;;;;;24.92;8.63;;;;;;;;;;4979372;28;20125;-82
2022/12/19 01:27:35;;;;;;;14.63;6.85;;;;;;;;;;4978498;28;20109;-82
2022/12/19 01:30:01;;;;;;;17.48;6.95;;;;;;;;;;4980126;28;20022;-82
2022/12/19 01:32:26;;;;;;;11.48;4.78;;;;;;;;;;4980069;28;20070;-81
2022/12/19 01:34:52;;;;;;;13.65;4.93;;;;;;;;;;4978753;28;20027;-81
2022/12/19 01:37:18;;;;;;;13.65;6.22;;;;;;;;;;4980079;28;20030;-81
2022/12/19 01:39:43;;;;;;;21.42;8.20;;;;;;;;;;4978797;28;20025;-82
2022/12/19 01:42:17;;;;;;;20.75;7.57;;;;;;;;;;4978521;28;20121;-83
2022/12/19 01:45:21;;;;;;;12.23;6.38;;;;;;;;;;4980119;28;20384;-82
2022/12/19 01:47:59;;;;;;;9.88;4.13;;;;;;;;;;4979699;28;20038;-81
2022/12/19 01:50:36;;;;;;;16.77;7.25;;;;;;;;;;4980107;28;20499;-81
2022/12/19 01:53:02;;;;;;;12.82;4.70;;;;;;;;;;4979292;28;20031;-82
2022/12/19 01:55:28;;;;;;;20.20;8.13;;;;;;;;;;4980080;28;20066;-83
2022/12/19 01:57:55;;;;;;;8.63;4.32;;;;;;;;;;4977589;28;20023;-82
2022/12/19 02:00:20;;;;;;;14.00;6.78;;;;;;;;;;4979879;28;20417;-83
2022/12/19 02:02:53;;;;;;;15.50;6.40;;;;;;;;;;4980181;28;20116;-81
2022/12/19 02:05:18;;;;;;;8.50;4.68;;;;;;;;;;4979227;28;20054;-82
2022/12/19 02:07:45;;;;;;;16.90;7.60;;;;;;;;;;4978975;28;20033;-81
2022/12/19 02:10:10;;;;;;;14.00;5.65;;;;;;;;;;4976763;28;20089;-82
2022/12/19 02:12:39;;;;;;;13.82;6.30;;;;;;;;;;4976181;28;20027;-80
2022/12/19 02:15:05;;;;;;;19.15;6.28;;;;;;;;;;4978314;28;20026;-81
2022/12/19 02:17:56;;;;;;;14.98;6.85;;;;;;;;;;4978621;28;20033;-81
2022/12/19 02:20:33;;;;;;;11.70;4.75;;;;;;;;;;4978548;28;20104;-82
2022/12/19 02:23:36;;;;;;;11.48;5.18;;;;;;;;;;4977613;28;20496;-81
2022/12/19 02:26:14;;;;;;;9.95;4.78;;;;;;;;;;4979552;28;20065;-80
2022/12/19 02:29:10;;;;;;;10.77;4.93;;;;;;;;;;4977577;28;20027;-81
2022/12/19 02:31:47;;;;;;;15.20;6.72;;;;;;;;;;4979062;28;20031;-81
2022/12/19 02:34:33;;;;;;;7.47;4.10;;;;;;;;;;4979457;28;20109;-81
2022/12/19 02:37:06;;;;;;;13.02;5.10;;;;;;;;;;4979564;28;20414;-80
2022/12/19 02:39:49;;;;;;;8.85;3.78;;;;;;;;;;4979627;28;20031;-83
2022/12/19 02:42:24;;;;;;;12.93;5.33;;;;;;;;;;4977931;28;20143;-83
2022/12/19 02:44:51;;;;;;;10.30;5.18;;;;;;;;;;4976810;28;20031;-81
2022/12/19 02:47:18;;;;;;;12.57;4.30;;;;;;;;;;4978295;28;20107;-82
2022/12/19 02:49:44;;;;;;;14.50;6.20;;;;;;;;;;4978840;28;20496;-84
2022/12/19 02:52:12;;;;;;;16.55;5.50;;;;;;;;;;4978425;28;20023;-80
2022/12/19 02:54:38;;;;;;;8.45;3.60;;;;;;;;;;4977464;28;20035;-83
2022/12/19 02:57:21;;;;;;;13.80;5.38;;;;;;;;;;4977209;28;20022;-81
2022/12/19 02:59:54;;;;;;;9.07;4.38;;;;;;;;;;4977532;28;20040;-82
2022/12/19 03:02:44;;;;;;;11.95;4.95;;;;;;;;;;4978415;28;20077;-81
2022/12/19 03:05:45;;;;;;;8.93;4.05;;;;;;;;;;4979113;28;20113;-83
2022/12/19 03:08:37;;;;;;;7.13;3.33;;;;;;;;;;4978835;28;20053;-81
2022/12/19 03:11:13;;;;;;;17.55;5.32;;;;;;;;;;4978546;28;20033;-83
2022/12/19 03:14:04;;;;;;;9.27;4.60;;;;;;;;;;4978556;28;20034;-81
2022/12/19 03:16:30;;;;;;;16.33;6.05;;;;;;;;;;4978184;28;20057;-83
2022/12/19 03:18:56;;;;;;;11.25;4.68;;;;;;;;;;4978447;28;20485;-81
2022/12/19 03:21:33;;;;;;;9.18;4.22;;;;;;;;;;4978585;28;20493;-81
2022/12/19 03:23:59;;;;;;;14.65;5.60;;;;;;;;;;4977104;28;20038;-81
2022/12/19 03:26:30;;;;;;;12.02;5.25;;;;;;;;;;4977553;28;20031;-80
2022/12/19 03:29:02;;;;;;;12.98;6.15;;;;;;;;;;4978544;28;20042;-81
2022/12/19 03:31:29;;;;;;;7.28;3.72;;;;;;;;;;4978088;28;20380;-81
2022/12/19 03:33:59;;;;;;;11.93;4.97;;;;;;;;;;4977885;28;20046;-81
2022/12/19 03:36:30;;;;;;;11.10;4.28;;;;;;;;;;4977872;28;20054;-80
2022/12/19 03:38:58;;;;;;;15.45;6.00;;;;;;;;;;4978028;28;20055;-82
2022/12/19 03:44:10;;;;;;;11.52;5.20;;;;;;;;;;4978374;28;20033;-81
2022/12/19 03:46:42;;;;;;;19.77;5.22;;;;;;;;;;4978707;28;20448;-82
2022/12/19 03:49:07;;;;;;;20.02;7.43;;;;;;;;;;4978663;28;20042;-82
2022/12/19 03:51:47;;;;;;;15.60;5.55;;;;;;;;;;4977275;28;20019;-80
2022/12/19 03:54:18;;;;;;;17.02;6.35;;;;;;;;;;4978004;28;20058;-82
2022/12/19 03:56:53;;;;;;;20.17;7.32;;;;;;;;;;4976592;28;20026;-81
2022/12/19 03:59:27;;;;;;;15.77;7.10;;;;;;;;;;4976670;28;20027;-81
2022/12/19 04:01:53;;;;;;;22.50;7.53;;;;;;;;;;4978484;28;20424;-81
2022/12/19 04:04:21;;;;;;;18.02;6.28;;;;;;;;;;4976237;28;20046;-81
2022/12/19 04:06:48;;;;;;;22.27;7.47;;;;;;;;;;4977897;28;20429;-81
2022/12/19 04:09:13;;;;;;;22.20;6.70;;;;;;;;;;4977898;28;20026;-81
2022/12/19 04:11:42;;;;;;;21.13;6.47;;;;;;;;;;4978148;28;20022;-82
2022/12/19 04:14:14;;;;;;;21.05;8.05;;;;;;;;;;4978121;28;20400;-81
2022/12/19 04:17:00;;;;;;;14.23;5.60;;;;;;;;;;4978065;28;20472;-82
2022/12/19 04:19:35;;;;;;;14.85;6.32;;;;;;;;;;4976160;28;20023;-80
2022/12/19 04:22:09;;;;;;;13.43;5.35;;;;;;;;;;4977684;28;20027;-81
2022/12/19 04:24:36;;;;;;;16.50;5.80;;;;;;;;;;4976094;28;20035;-82
2022/12/19 04:27:04;;;;;;;19.33;6.15;;;;;;;;;;4976583;28;20551;-82
2022/12/19 04:29:32;;;;;;;16.95;6.20;;;;;;;;;;4977354;28;20027;-81
2022/12/19 04:31:58;;;;;;;14.23;5.95;;;;;;;;;;4976598;28;20030;-81
2022/12/19 04:34:24;;;;;;;17.13;7.78;;;;;;;;;;4980930;28;20027;-81
2022/12/19 04:36:49;;;;;;;20.00;7.88;;;;;;;;;;4981205;28;20030;-80
2022/12/19 04:39:14;;;;;;;21.63;8.07;;;;;;;;;;4981861;28;20062;-81
2022/12/19 04:41:40;;;;;;;14.52;5.47;;;;;;;;;;4980182;28;20092;-82
2022/12/19 04:44:05;;;;;;;17.70;6.63;;;;;;;;;;4981070;28;20038;-81
2022/12/19 04:46:30;;;;;;;23.27;7.65;;;;;;;;;;4979811;28;20046;-82
2022/12/19 04:48:55;;;;;;;19.77;6.80;;;;;;;;;;4980890;28;20030;-82
2022/12/19 04:51:21;;;;;;;16.83;6.05;;;;;;;;;;4980175;28;20058;-80
2022/12/19 04:53:46;;;;;;;15.55;7.20;;;;;;;;;;4981041;28;20121;-82
2022/12/19 04:56:11;;;;;;;26.13;9.32;;;;;;;;;;4981251;28;20026;-82
2022/12/19 04:58:37;;;;;;;21.45;8.02;;;;;;;;;;4980165;28;20034;-82
2022/12/19 05:01:07;;;;;;;20.60;6.57;;;;;;;;;;4980854;28;20030;-81
2022/12/19 05:03:33;;;;;;;15.00;6.40;;;;;;;;;;4979899;28;20027;-81
2022/12/19 05:06:06;;;;;;;23.38;8.40;;;;;;;;;;4978737;28;20027;-81
2022/12/19 05:08:32;;;;;;;19.25;4.78;;;;;;;;;;4977643;28;20515;-82
2022/12/19 05:10:59;;;;;;;14.07;6.28;;;;;;;;;;4978213;28;20035;-82
2022/12/19 05:13:25;;;;;;;19.23;8.05;;;;;;;;;;4978835;28;20452;-83
2022/12/19 05:16:02;;;;;;;11.80;5.82;;;;;;;;;;4979455;28;20065;-81
2022/12/19 05:18:28;;;;;;;24.20;8.68;;;;;;;;;;4979269;28;20039;-82
2022/12/19 05:20:53;;;;;;;22.67;8.85;;;;;;;;;;4979545;28;20039;-81
2022/12/19 05:23:19;;;;;;;15.45;6.55;;;;;;;;;;4977812;28;20396;-81
2022/12/19 05:25:45;;;;;;;21.80;8.65;;;;;;;;;;4977706;28;20033;-81
2022/12/19 05:28:10;;;;;;;20.75;6.22;;;;;;;;;;4979152;28;20125;-81
2022/12/19 05:30:35;;;;;;;14.15;7.20;;;;;;;;;;4980326;28;20051;-82
2022/12/19 05:33:01;;;;;;;15.88;6.25;;;;;;;;;;4977106;28;20037;-81
2022/12/19 05:35:26;;;;;;;15.85;7.00;;;;;;;;;;4978688;28;20078;-81
2022/12/19 05:37:52;;;;;;;15.23;6.18;;;;;;;;;;4980156;28;20469;-82
2022/12/19 05:40:17;;;;;;;21.65;7.18;;;;;;;;;;4979975;28;20033;-82
2022/12/19 05:42:42;;;;;;;22.05;8.45;;;;;;;;;;4979353;28;20031;-83
2022/12/19 05:45:08;;;;;;;11.32;5.65;;;;;;;;;;4977859;28;20034;-83
2022/12/19 05:47:33;;;;;;;14.52;6.47;;;;;;;;;;4978031;28;20129;-81
2022/12/19 05:49:58;;;;;;;21.80;9.10;;;;;;;;;;4976350;28;20162;-82
2022/12/19 05:52:24;;;;;;;17.20;6.80;;;;;;;;;;4977706;28;20400;-81
2022/12/19 05:54:49;;;;;;;23.05;8.38;;;;;;;;;;4977489;28;20031;-82
2022/12/19 05:57:15;;;;;;;16.85;6.03;;;;;;;;;;4978352;28;20477;-80
2022/12/19 05:59:40;;;;;;;18.65;6.85;;;;;;;;;;4978323;28;20029;-82
2022/12/19 06:02:05;;;;;;;17.02;6.85;;;;;;;;;;4977909;28;20435;-83
2022/12/19 06:04:31;;;;;;;15.63;5.43;;;;;;;;;;4976633;28;20026;-82
2022/12/19 06:06:56;;;;;;;15.48;5.55;;;;;;;;;;4977745;28;20041;-81
2022/12/19 06:09:22;;;;;;;18.50;7.22;;;;;;;;;;4977542;28;20022;-83
2022/12/19 06:11:48;;;;;;;10.65;4.55;;;;;;;;;;4977668;28;20034;-82
2022/12/19 06:14:13;;;;;;;22.17;8.18;;;;;;;;;;4979045;28;20085;-82
2022/12/19 06:16:38;;;;;;;22.10;5.72;;;;;;;;;;4979124;28;20031;-81
2022/12/19 06:19:03;;;;;;;21.58;8.45;;;;;;;;;;4977918;28;20193;-81
2022/12/19 06:21:29;;;;;;;17.00;7.07;;;;;;;;;;4977806;28;20023;-81
2022/12/19 06:23:55;;;;;;;14.43;6.15;;;;;;;;;;4978268;28;20023;-80
2022/12/19 06:26:21;;;;;;;27.77;9.57;;;;;;;;;;4978032;28;20381;-81
2022/12/19 06:28:47;;;;;;;16.98;7.43;;;;;;;;;;4976324;28;20074;-82
2022/12/19 06:31:13;;;;;;;20.90;8.80;;;;;;;;;;4978200;28;20023;-81
2022/12/19 06:33:38;;;;;;;22.95;8.63;;;;;;;;;;4978939;28;20037;-81
2022/12/19 06:36:12;;;;;;;14.90;5.82;;;;;;;;;;4976890;28;20093;-81
2022/12/19 06:38:37;;;;;;;16.80;5.97;;;;;;;;;;4977966;28;20125;-82
2022/12/19 06:43:47;;;;;;;15.80;7.32;;;;;;;;;;4981020;28;20070;-81
2022/12/19 06:46:12;;;;;;;19.60;8.38;;;;;;;;;;4977579;28;20031;-83
2022/12/19 06:48:37;;;;;;;25.95;10.75;;;;;;;;;;4978209;28;20054;-82
2022/12/19 06:51:03;;;;;;;26.00;9.02;;;;;;;;;;4978162;28;20041;-82
2022/12/19 06:53:28;;;;;;;25.25;10.05;;;;;;;;;;4977998;28;20030;-81
2022/12/19 06:55:56;;;;;;;21.75;8.23;;;;;;;;;;4977171;28;20034;-81
2022/12/19 06:58:21;;;;;;;18.73;7.07;;;;;;;;;;4976095;28;20050;-81
2022/12/19 07:00:46;;;;;;;17.63;6.43;;;;;;;;;;4977572;28;20027;-82
2022/12/19 07:03:16;;;;;;;30.27;9.25;;;;;;;;;;4977397;28;20030;-83
2022/12/19 07:05:41;;;;;;;18.02;7.28;;;;;;;;;;4976172;28;20031;-81
2022/12/19 07:08:08;;;;;;;23.95;9.20;;;;;;;;;;4976338;28;20034;-81
2022/12/19 07:10:33;;;;;;;29.17;9.68;;;;;;;;;;4977618;28;20023;-82
2022/12/19 07:12:58;;;;;;;22.58;8.30;;;;;;;;;;4977224;28;20022;-82
2022/12/19 07:15:24;;;;;;;22.95;8.65;;;;;;;;;;4977664;28;20027;-82
2022/12/19 07:17:49;;;;;;;23.35;8.32;;;;;;;;;;4977484;28;20105;-83
2022/12/19 07:20:16;;;;;;;23.88;8.20;;;;;;;;;;4977622;28;20029;-81
2022/12/19 07:22:42;;;;;;;23.45;7.72;;;;;;;;;;4977748;28;20058;-81
2022/12/19 07:25:09;;;;;;;17.15;7.30;;;;;;;;;;4976046;28;20090;-82
2022/12/19 07:27:37;;;;;;;23.95;8.88;;;;;;;;;;4978148;28;20566;-83
2022/12/19 07:30:04;;;;;;;9.15;4.80;;;;;;;;;;4977479;28;20033;-82
2022/12/19 07:32:30;;;;;;;9.93;4.38;;;;;;;;;;4977047;28;20086;-82
2022/12/19 07:34:55;;;;;;;15.68;6.53;;;;;;;;;;4977940;28;20022;-80
2022/12/19 07:37:20;;;;;;;21.50;7.38;;;;;;;;;;4976672;28;20062;-81
2022/12/19 07:39:49;;;;;;;22.00;8.43;;;;;;;;;;4975999;28;20400;-81
2022/12/19 07:42:14;;;;;;;23.30;8.25;;;;;;;;;;4975978;28;20481;-82
2022/12/19 07:44:39;;;;;;;24.33;8.68;;;;;;;;;;4976243;28;20038;-80
2022/12/19 07:47:08;;;;;;;20.27;8.27;;;;;;;;;;4976522;28;20027;-81
2022/12/19 07:49:34;;;;;;;19.52;7.43;;;;;;;;;;4976485;28;20034;-82
2022/12/19 07:51:59;;;;;;;15.80;7.25;;;;;;;;;;4978623;28;20030;-81
2022/12/19 07:54:24;;;;;;;22.63;8.60;;;;;;;;;;4978094;28;20018;-82
2022/12/19 07:56:50;;;;;;;13.32;5.28;;;;;;;;;;4977410;28;20033;-83
2022/12/19 07:59:15;;;;;;;22.27;8.80;;;;;;;;;;4976520;28;20026;-81
2022/12/19 08:01:40;;;;;;;30.23;11.38;;;;;;;;;;4977274;28;20113;-84
2022/12/19 08:04:05;;;;;;;31.45;9.18;;;;;;;;;;4976918;28;20473;-81
2022/12/19 08:06:33;;;;;;;24.23;9.18;;;;;;;;;;4976922;28;20133;-82
2022/12/19 08:08:58;;;;;;;17.92;6.00;;;;;;;;;;4979123;28;20046;-80
2022/12/19 08:11:28;;;;;;;12.23;5.85;;;;;;;;;;4981196;28;20031;-81
2022/12/19 08:13:54;;;;;;;17.23;7.00;;;;;;;;;;4981426;28;20023;-82
2022/12/19 08:16:20;;;;;;;27.58;10.02;;;;;;;;;;4979731;28;20035;-82
2022/12/19 08:18:46;;;;;;;21.63;7.63;;;;;;;;;;4981578;28;20126;-82
2022/12/19 08:21:12;;;;;;;19.63;7.85;;;;;;;;;;4981638;28;20101;-83
2022/12/19 08:23:38;;;;;;;20.35;8.00;;;;;;;;;;4980568;28;20033;-82
2022/12/19 08:26:06;;;;;;;28.58;8.60;;;;;;;;;;4981732;28;20380;-83
2022/12/19 08:28:32;;;;;;;19.15;8.40;;;;;;;;;;4980028;28;20030;-82
2022/12/19 08:31:06;;;;;;;16.65;7.00;;;;;;;;;;4981365;28;20034;-80
2022/12/19 08:33:31;;;;;;;27.95;8.27;;;;;;;;;;4980908;28;20393;-81
2022/12/19 08:35:57;;;;;;;17.38;7.43;;;;;;;;;;4979430;28;20026;-80
2022/12/19 08:38:22;;;;;;;15.27;6.93;;;;;;;;;;4979162;28;20030;-82
2022/12/19 08:40:52;;;;;;;25.77;10.15;;;;;;;;;;4981173;28;20586;-81
2022/12/19 08:43:17;;;;;;;29.65;10.25;;;;;;;;;;4979777;28;20452;-82
2022/12/19 08:45:44;;;;;;;27.75;10.15;;;;;;;;;;4981093;28;20030;-81
2022/12/19 08:48:10;;;;;;;24.52;9.38;;;;;;;;;;4979341;28;20038;-83
2022/12/19 08:50:37;;;;;;;15.43;5.95;;;;;;;;;;4981248;28;20018;-82
2022/12/19 08:53:02;;;;;;;18.75;7.50;;;;;;;;;;4980690;28;20033;-83
2022/12/19 08:55:27;;;;;;;19.98;8.35;;;;;;;;;;4980553;28;20447;-81
2022/12/19 08:57:53;;;;;;;28.27;10.75;;;;;;;;;;4980527;28;20022;-82
2022/12/19 09:00:19;;;;;;;14.13;5.63;;;;;;;;;;4980594;28;20473;-82
2022/12/19 09:02:44;;;;;;;23.92;9.45;;;;;;;;;;4980033;28;20027;-82
2022/12/19 09:05:10;;;;;;;20.42;6.75;;;;;;;;;;4980709;28;20038;-81
2022/12/19 09:07:35;;;;;;;25.30;10.90;;;;;;;;;;4980580;28;20114;-81
2022/12/19 09:10:02;;;;;;;19.05;8.05;;;;;;;;;;4979368;28;20022;-82
2022/12/19 09:12:27;;;;;;;22.25;8.63;;;;;;;;;;4980647;28;20030;-82
2022/12/19 09:14:55;;;;;;;21.92;8.50;;;;;;;;;;4980516;28;20025;-80
2022/12/19 09:17:23;;;;;;;30.00;10.38;;;;;;;;;;4980514;28;20110;-83
2022/12/19 09:19:48;;;;;;;18.77;7.53;;;;;;;;;;4979922;28;20031;-81
2022/12/19 09:22:13;;;;;;;29.50;10.75;;;;;;;;;;4978989;28;20393;-82
2022/12/19 09:24:39;;;;;;;23.90;10.55;;;;;;;;;;4978812;28;20022;-82
2022/12/19 09:27:04;;;;;;;26.88;11.40;;;;;;;;;;4980504;28;20095;-83
2022/12/19 09:29:29;;;;;;;31.30;10.93;;;;;;;;;;4979831;28;20023;-82
2022/12/19 09:31:55;;;;;;;22.67;9.75;;;;;;;;;;4978540;28;20019;-82
2022/12/19 09:34:20;;;;;;;25.08;9.70;;;;;;;;;;4979761;28;20475;-82
2022/12/19 09:36:45;;;;;;;25.65;10.88;;;;;;;;;;4980136;28;20031;-82
2022/12/19 09:39:11;;;;;;;16.25;6.80;;;;;;;;;;4982650;28;20106;-84
2022/12/19 09:42:14;;;;;;;15.18;7.10;;;;;;;;;;4982641;28;20073;-82
2022/12/19 09:44:39;;;;;;;27.88;10.15;;;;;;;;;;4980329;28;20049;-82
2022/12/19 09:47:14;;;;;;;24.42;9.27;;;;;;;;;;4979113;28;20031;-82
2022/12/19 09:49:42;;;;;;;16.35;7.22;;;;;;;;;;4978576;28;20029;-82
2022/12/19 09:52:15;;;;;;;29.20;11.30;;;;;;;;;;4979736;28;20381;-80
2022/12/19 09:54:47;;;;;;;21.63;8.65;;;;;;;;;;4978087;28;20114;-80
2022/12/19 09:57:24;;;;;;;24.88;10.15;;;;;;;;;;4979278;28;20038;-81
2022/12/19 09:59:55;;;;;;;20.25;8.43;;;;;;;;;;4979189;28;20055;-82
2022/12/19 10:02:40;;;;;;;20.92;9.32;;;;;;;;;;4979627;28;20125;-80
2022/12/19 10:05:24;;;;;;;21.75;9.77;;;;;;;;;;4979525;28;20026;-83
2022/12/19 10:07:51;;;;;;;20.77;8.48;;;;;;;;;;4980621;28;20476;-80
2022/12/19 10:10:28;;;;;;;22.83;9.82;;;;;;;;;;4979858;28;20027;-81
2022/12/19 10:13:16;;;;;;;20.70;8.75;;;;;;;;;;4980960;28;20507;-83
2022/12/19 10:15:50;;;;;;;22.65;9.98;;;;;;;;;;4981121;28;20027;-82
2022/12/19 10:18:25;;;;;;;30.17;10.70;;;;;;;;;;4979844;28;20480;-82
2022/12/19 10:21:05;;;;;;;23.13;9.32;;;;;;;;;;4978770;28;20038;-81
2022/12/19 10:23:52;;;;;;;24.23;9.68;;;;;;;;;;4979870;28;20584;-83
2022/12/19 10:26:26;;;;;;;22.45;10.10;;;;;;;;;;4978879;28;20035;-83
2022/12/19 10:28:59;;;;;;;26.85;9.75;;;;;;;;;;4980333;28;20090;-82
2022/12/19 10:31:56;;;;;;;19.90;8.20;;;;;;;;;;4977947;28;20050;-82
2022/12/19 10:34:27;;;;;;;26.63;11.65;;;;;;;;;;4930869;28;20039;-83
2022/12/19 10:36:59;;;;;;;27.92;10.38;;;;;;;;;;4979631;28;20077;-82
2022/12/19 10:39:32;;;;;;;27.83;11.00;;;;;;;;;;4977855;28;20047;-82
2022/12/19 10:42:23;;;;;;;26.95;10.90;;;;;;;;;;4979295;28;20031;-83
2022/12/19 10:44:52;;;;;;;25.48;9.93;;;;;;;;;;4979459;28;20069;-81
2022/12/19 10:47:17;;;;;;;31.38;11.32;;;;;;;;;;4979459;28;20065;-83
2022/12/19 10:49:42;;;;;;;29.17;10.93;;;;;;;;;;4980789;28;20015;-83
2022/12/19 10:52:10;;;;;;;22.85;9.35;;;;;;;;;;4978865;28;20421;-83
2022/12/19 10:54:41;;;;;;;28.90;11.23;;;;;;;;;;4980439;28;20027;-82
2022/12/19 10:57:27;;;;;;;21.05;9.38;;;;;;;;;;4980166;28;20026;-83
2022/12/19 11:00:16;;;;;;;27.75;11.10;;;;;;;;;;4979747;28;20077;-82
2022/12/19 11:02:47;;;;;;;29.70;11.88;;;;;;;;;;4969179;28;20086;-82
2022/12/19 11:05:47;;;;;;;26.80;10.27;;;;;;;;;;4979179;28;20023;-83
2022/12/19 11:08:17;;;;;;;22.50;8.63;;;;;;;;;;4980176;28;20030;-83
2022/12/19 11:10:49;;;;;;;24.73;10.32;;;;;;;;;;4979968;28;20054;-81
2022/12/19 11:13:23;;;;;;;24.88;10.15;;;;;;;;;;4980295;28;20033;-82
2022/12/19 11:15:53;;;;;;;25.17;9.23;;;;;;;;;;4980342;28;20085;-83
2022/12/19 11:18:18;;;;;;;25.33;11.60;;;;;;;;;;4980605;28;20042;-82
2022/12/19 11:21:02;;;;;;;17.17;7.10;;;;;;;;;;4981311;28;20026;-82
2022/12/19 11:23:29;;;;;;;;;;;;;;;;;;4980521;28;20039;-83
2022/12/19 11:26:03;;;;;;;21.52;7.85;;;;;;;;;;4980636;28;19933;-82
2022/12/19 11:28:35;;;;;;;15.10;6.55;;;;;;;;;;4979931;28;20027;-84
2022/12/19 11:31:05;;;;;;;30.40;11.27;;;;;;;;;;4980554;28;20228;-83
2022/12/19 11:33:31;;;;;;;30.05;11.63;;;;;;;;;;4981575;28;20026;-81
2022/12/19 11:35:58;;;;;;;25.95;10.55;;;;;;;;;;4980830;28;20033;-83
2022/12/19 11:38:39;;;;;;;24.58;10.52;;;;;;;;;;4980176;28;20034;-84
2022/12/19 11:41:21;;;;;;;28.45;10.10;;;;;;;;;;4980146;28;20037;-82
2022/12/19 11:44:03;;;;;;;23.58;10.20;;;;;;;;;;4984679;28;20034;-82
2022/12/19 11:46:33;;;;;;;21.45;9.13;;;;;;;;;;4984236;28;20078;-81
2022/12/19 11:49:20;;;;;;;34.95;12.85;;;;;;;;;;4984100;28;20107;-81
2022/12/19 11:52:04;;;;;;;33.38;12.32;;;;;;;;;;4984197;28;20027;-81
2022/12/19 11:54:55;;;;;;;31.65;12.10;;;;;;;;;;4983521;28;20053;-81
2022/12/19 11:57:20;;;;;;;31.92;11.75;;;;;;;;;;4984605;28;20062;-81
2022/12/19 11:59:46;;;;;;;24.20;9.80;;;;;;;;;;4982567;28;20035;-82
2022/12/19 12:02:20;;;;;;;21.92;8.90;;;;;;;;;;4983993;28;20030;-83
2022/12/19 12:05:05;;;;;;;30.00;10.75;;;;;;;;;;4984408;28;20058;-80
2022/12/19 12:07:35;;;;;;;19.58;8.57;;;;;;;;;;4984642;28;20045;-82
2022/12/19 12:10:15;;;;;;;35.08;12.73;;;;;;;;;;4984402;28;20395;-82
2022/12/19 12:13:08;;;;;;;31.25;11.98;;;;;;;;;;4984914;28;20026;-84
2022/12/19 12:15:48;;;;;;;25.05;9.40;;;;;;;;;;4983804;28;20484;-81
2022/12/19 12:18:21;;;;;;;21.50;8.60;;;;;;;;;;4984253;28;20022;-82
2022/12/19 12:21:07;;;;;;;27.10;10.50;;;;;;;;;;4983868;28;20026;-84
2022/12/19 12:23:38;;;;;;;34.28;13.43;;;;;;;;;;4984109;28;20034;-81
2022/12/19 12:26:24;;;;;;;35.28;16.63;;;;;;;;;;4984362;28;20050;-81
2022/12/19 12:29:02;;;;;;;28.35;13.82;;;;;;;;;;4985958;28;20027;-83
2022/12/19 12:31:33;;;;;;;31.38;13.77;;;;;;;;;;4984113;28;20119;-83
2022/12/19 12:34:30;;;;;;;23.17;9.30;;;;;;;;;;4983320;28;20030;-84
2022/12/19 12:37:21;;;;;;;45.75;16.63;;;;;;;;;;4983430;28;20037;-82
2022/12/19 12:40:14;;;;;;;46.03;18.45;;;;;;;;;;4983386;28;20102;-82
2022/12/19 12:42:47;;;;;;;23.90;10.20;;;;;;;;;;4984208;28;20079;-82
2022/12/19 12:45:31;;;;;;;46.60;17.73;;;;;;;;;;4983430;28;20097;-84
2022/12/19 12:47:57;;;;;;;34.58;13.30;;;;;;;;;;4983290;28;20023;-82
2022/12/19 12:50:24;;;;;;;27.65;11.40;;;;;;;;;;4982872;28;20465;-81
2022/12/19 12:52:55;;;;;;;23.90;10.35;;;;;;;;;;4979395;28;20033;-82
2022/12/19 12:55:25;;;;;;;29.05;10.65;;;;;;;;;;4981187;28;20033;-82
2022/12/19 12:57:51;;;;;;;27.40;12.07;;;;;;;;;;4980755;28;20035;-81
2022/12/19 13:00:27;;;;;;;30.23;12.00;;;;;;;;;;4979351;28;20023;-81
2022/12/19 13:02:56;;;;;;;18.35;8.68;;;;;;;;;;4979184;28;20030;-80
2022/12/19 13:05:23;;;;;;;16.55;8.18;;;;;;;;;;4979574;28;20062;-82
2022/12/19 13:07:52;;;;;;;25.65;10.88;;;;;;;;;;4980295;28;20381;-81
2022/12/19 13:10:34;;;;;;;34.17;13.30;;;;;;;;;;4978831;28;20031;-82
2022/12/19 13:13:08;;;;;;;29.45;12.70;;;;;;;;;;4980414;28;20023;-82
2022/12/19 13:15:36;;;;;;;;;;;;;;;;;;4980741;28;20055;-81
2022/12/19 13:18:08;;;;;;;16.27;7.40;;;;;;;;;;4978955;28;19914;-81
2022/12/19 13:20:45;;;;;;;20.88;9.48;;;;;;;;;;4980412;28;20026;-82
2022/12/19 13:23:32;;;;;;;22.67;8.88;;;;;;;;;;4978328;28;20484;-81
2022/12/19 13:25:58;;;;;;;23.42;10.15;;;;;;;;;;4978193;28;20034;-82
2022/12/19 13:28:23;;;;;;;24.25;9.95;;;;;;;;;;4979218;28;20034;-81
2022/12/19 13:31:00;;;;;;;20.02;8.23;;;;;;;;;;4977876;28;20030;-82
2022/12/19 13:33:46;;;;;;;33.83;10.70;;;;;;;;;;4979425;28;20399;-81
2022/12/19 13:36:43;;;;;;;18.00;9.07;;;;;;;;;;4977882;28;20177;-83
2022/12/19 13:39:26;;;;;;;32.35;13.05;;;;;;;;;;4978903;28;20030;-83
2022/12/19 13:44:56;;;;;;;18.50;8.20;;;;;;;;;;4979570;28;20143;-82
2022/12/19 13:47:23;;;;;;;28.05;10.73;;;;;;;;;;4980752;28;20031;-82
2022/12/19 13:49:49;;;;;;;37.58;12.90;;;;;;;;;;4998404;28;20066;-82
2022/12/19 13:52:16;;;;;;;20.00;9.77;;;;;;;;;;4994709;28;20046;-82
2022/12/19 13:54:50;;;;;;;34.65;13.40;;;;;;;;;;4993860;28;20027;-82
2022/12/19 13:57:25;;;;;;;28.30;12.27;;;;;;;;;;4978153;28;20116;-81
2022/12/19 13:59:52;;;;;;;22.77;9.32;;;;;;;;;;4979875;28;20030;-82
2022/12/19 14:02:31;;;;;;;15.95;7.25;;;;;;;;;;4979114;28;20461;-82
2022/12/19 14:04:57;;;;;;;32.80;11.98;;;;;;;;;;4978476;28;20022;-82
2022/12/19 14:07:29;;;;;;;32.63;13.48;;;;;;;;;;4979353;28;20114;-82
2022/12/19 14:09:55;;;;;;;18.63;8.50;;;;;;;;;;4977527;28;20019;-81
2022/12/19 14:15:31;;;;;;;25.27;11.68;;;;;;;;;;4980063;28;20075;-82
2022/12/19 14:18:01;;;;;;;34.72;13.70;;;;;;;;;;4979315;28;20035;-81
2022/12/19 14:20:28;;;;;;;26.13;10.82;;;;;;;;;;4979207;28;20122;-82
2022/12/19 14:22:58;;;;;;;22.88;9.02;;;;;;;;;;4977321;28;20022;-82
2022/12/19 14:25:39;;;;;;;29.67;12.02;;;;;;;;;;4978611;28;20442;-83
2022/12/19 14:28:09;;;;;;;30.17;11.55;;;;;;;;;;4977927;28;20026;-83
2022/12/19 14:30:37;;;;;;;34.40;13.13;;;;;;;;;;4976795;28;20030;-82
2022/12/19 14:33:07;;;;;;;21.38;9.23;;;;;;;;;;4979078;28;20035;-82
2022/12/19 14:35:37;;;;;;;36.35;15.10;;;;;;;;;;4979525;28;20038;-82
2022/12/19 14:38:06;;;;;;;23.25;8.38;;;;;;;;;;4979845;28;20497;-82
2022/12/19 14:40:33;;;;;;;28.13;12.00;;;;;;;;;;4979111;28;20039;-82
2022/12/19 14:46:20;;;;;;;22.58;9.05;;;;;;;;;;4980693;28;20037;-82
2022/12/19 14:48:53;;;;;;;24.85;10.00;;;;;;;;;;4979108;28;20023;-83
2022/12/19 14:51:21;;;;;;;33.70;13.00;;;;;;;;;;4977236;28;20026;-82
2022/12/19 14:54:08;;;;;;;30.33;12.60;;;;;;;;;;4976580;28;20374;-82
2022/12/19 14:56:49;;;;;;;27.00;10.30;;;;;;;;;;4977245;28;20019;-83
2022/12/19 14:59:20;;;;;;;21.08;8.57;;;;;;;;;;4976932;28;20031;-83
2022/12/19 15:01:52;;;;;;;28.35;11.77;;;;;;;;;;4976452;28;20136;-83
2022/12/19 15:04:25;;;;;;;29.73;11.63;;;;;;;;;;4977756;28;20107;-83